Time;durP1;ratioP1;P1;durP2;ratioP2;P2;SDS_P1;SDS_P2;PMS_P1;PMS_P2;Temp;Humidity;BMP_temperature;BMP_pressure;BME280_temperature;BME280_humidity;BME280_pressure;Samples;Min_cycle;Max_cycle;Signal;HPM_P1;HPM_P2
2022/03/18 00:02:04;;;;;;;5.97;3.72;;;2.60;99.90;;;;;;5032152;28;20029;-73
2022/03/18 00:04:30;;;;;;;12.43;4.10;;;2.60;99.90;;;;;;5014624;28;20033;-73
2022/03/18 00:06:56;;;;;;;15.10;4.50;;;2.60;99.90;;;;;;5031996;28;20403;-73
2022/03/18 00:09:21;;;;;;;9.97;3.67;;;2.50;99.90;;;;;;5032054;28;20035;-72
2022/03/18 00:11:48;;;;;;;13.00;4.20;;;2.50;99.90;;;;;;5032225;28;20037;-73
2022/03/18 00:14:14;;;;;;;15.70;4.50;;;2.50;99.90;;;;;;5032067;28;20030;-73
2022/03/18 00:16:40;;;;;;;9.75;4.68;;;2.40;99.90;;;;;;5032028;28;20033;-73
2022/03/18 00:19:06;;;;;;;11.43;3.85;;;2.50;99.90;;;;;;5031953;28;20036;-73
2022/03/18 00:21:34;;;;;;;11.55;4.20;;;2.50;99.90;;;;;;5032056;28;20073;-85
2022/03/18 00:24:00;;;;;;;10.63;4.07;;;2.50;99.90;;;;;;5013945;28;20060;-72
2022/03/18 00:26:26;;;;;;;9.43;4.70;;;2.40;99.90;;;;;;5031822;28;20068;-72
2022/03/18 00:28:52;;;;;;;12.53;4.70;;;2.50;99.90;;;;;;5031923;28;20068;-73
2022/03/18 00:31:18;;;;;;;19.20;5.07;;;2.70;99.90;;;;;;5031895;28;20060;-73
2022/03/18 00:33:43;;;;;;;5.93;3.50;;;2.70;99.90;;;;;;5031998;28;20567;-73
2022/03/18 00:36:09;;;;;;;11.10;4.50;;;2.70;99.90;;;;;;5027671;28;20034;-73
2022/03/18 00:38:35;;;;;;;9.40;3.73;;;2.60;99.90;;;;;;5031553;28;20038;-74
2022/03/18 00:41:01;;;;;;;8.47;3.53;;;2.60;99.90;;;;;;5007319;28;20409;-72
2022/03/18 00:43:27;;;;;;;7.80;4.10;;;2.50;99.90;;;;;;5031870;28;20412;-72
2022/03/18 00:45:53;;;;;;;6.80;3.17;;;2.40;99.90;;;;;;5030349;28;20040;-72
2022/03/18 00:53:47;;;;;;;10.60;4.18;;;2.30;99.90;;;;;;5031871;28;20580;-72
2022/03/18 00:56:13;;;;;;;11.03;4.43;;;2.20;99.90;;;;;;5031552;28;20034;-72
2022/03/18 00:58:38;;;;;;;12.40;4.10;;;2.30;99.90;;;;;;5017331;28;20432;-72
2022/03/18 01:01:04;;;;;;;8.73;4.03;;;2.30;99.90;;;;;;5034335;28;20337;-72
2022/03/18 01:03:30;;;;;;;7.43;3.60;;;2.30;99.90;;;;;;5028009;28;20030;-72
2022/03/18 01:05:56;;;;;;;16.33;3.97;;;2.30;99.90;;;;;;5026227;28;20041;-72
2022/03/18 01:08:22;;;;;;;9.13;4.47;;;2.30;99.90;;;;;;5033624;28;20065;-81
2022/03/18 01:10:48;;;;;;;15.17;4.43;;;2.30;99.90;;;;;;5030782;28;20075;-73
2022/03/18 01:13:14;;;;;;;6.93;3.53;;;2.40;99.90;;;;;;5015120;28;20408;-73
2022/03/18 01:15:40;;;;;;;8.27;4.30;;;2.30;99.90;;;;;;5015337;28;20037;-73
2022/03/18 01:18:06;;;;;;;10.67;3.33;;;2.30;99.90;;;;;;5015490;28;20259;-74
2022/03/18 01:20:32;;;;;;;5.30;3.30;;;2.20;99.90;;;;;;5014954;28;20030;-72
2022/03/18 01:23:00;;;;;;;12.13;4.72;;;2.20;99.90;;;;;;5015116;28;20441;-72
2022/03/18 01:25:26;;;;;;;164.80;9.05;;;2.00;99.90;;;;;;5014987;28;20033;-72
2022/03/18 01:27:52;;;;;;;10.88;4.53;;;2.00;99.90;;;;;;5018018;28;20417;-73
2022/03/18 01:30:18;;;;;;;17.90;5.17;;;2.10;99.90;;;;;;5021540;28;20036;-72
2022/03/18 01:32:44;;;;;;;12.63;3.70;;;2.10;99.90;;;;;;5027931;28;20025;-72
2022/03/18 01:35:10;;;;;;;9.75;4.75;;;2.00;99.90;;;;;;5034828;28;20021;-73
2022/03/18 01:37:36;;;;;;;13.57;4.65;;;2.00;99.90;;;;;;5034859;28;20029;-72
2022/03/18 01:40:02;;;;;;;80.33;6.17;;;1.90;99.90;;;;;;5034441;28;20034;-72
2022/03/18 01:42:27;;;;;;;96.37;5.50;;;1.80;99.90;;;;;;5034737;28;20266;-72
2022/03/18 01:44:53;;;;;;;5.23;2.90;;;1.70;99.90;;;;;;5034467;28;20478;-72
2022/03/18 01:47:19;;;;;;;44.73;14.37;;;1.60;99.90;;;;;;5033738;28;20036;-72
2022/03/18 01:49:45;;;;;;;113.73;8.77;;;1.70;99.90;;;;;;5034190;28;20101;-72
2022/03/18 01:52:11;;;;;;;11.10;3.43;;;1.70;99.90;;;;;;5034538;28;20029;-73
2022/03/18 01:54:49;;;;;;;6.68;3.40;;;1.70;99.90;;;;;;5034366;28;20105;-73
2022/03/18 01:57:20;;;;;;;6.65;2.90;;;1.60;99.90;;;;;;5029372;28;20037;-72
2022/03/18 01:59:50;;;;;;;11.00;3.38;;;1.60;99.90;;;;;;5017058;28;20483;-72
2022/03/18 02:02:16;;;;;;;7.63;3.92;;;1.70;99.90;;;;;;5020499;28;20374;-73
2022/03/18 02:04:43;;;;;;;7.25;3.17;;;1.60;99.90;;;;;;5026049;28;20079;-73
2022/03/18 02:07:10;;;;;;;92.30;5.38;;;1.60;99.90;;;;;;5023442;28;20025;-73
2022/03/18 02:09:37;;;;;;;10.90;3.00;;;1.70;99.90;;;;;;5028261;28;20064;-73
2022/03/18 02:12:04;;;;;;;87.40;5.70;;;1.80;99.90;;;;;;5014009;28;20036;-72
2022/03/18 02:14:35;;;;;;;13.10;4.38;;;1.80;99.90;;;;;;5027275;28;20036;-72
2022/03/18 02:17:03;;;;;;;76.65;6.20;;;1.80;99.90;;;;;;5037320;28;20032;-73
2022/03/18 02:19:29;;;;;;;128.80;7.80;;;1.80;99.90;;;;;;5012101;28;20053;-72
2022/03/18 02:21:57;;;;;;;141.03;8.17;;;1.80;99.90;;;;;;5017599;28;20049;-72
2022/03/18 02:24:23;;;;;;;125.80;9.45;;;1.80;99.90;;;;;;5016908;28;20082;-72
2022/03/18 02:26:54;;;;;;;189.20;8.68;;;1.80;99.90;;;;;;5017096;28;20036;-85
2022/03/18 02:29:22;;;;;;;69.78;6.18;;;1.70;99.90;;;;;;5021016;28;20029;-73
2022/03/18 02:31:47;;;;;;;47.30;5.78;;;1.70;99.90;;;;;;5019732;28;20029;-73
2022/03/18 02:34:14;;;;;;;11.43;4.20;;;1.70;99.90;;;;;;5036859;28;20083;-73
2022/03/18 02:36:41;;;;;;;6.53;4.28;;;1.70;99.90;;;;;;5019154;28;20147;-73
2022/03/18 02:39:07;;;;;;;9.23;4.53;;;1.70;99.90;;;;;;5019100;28;20032;-73
2022/03/18 02:41:33;;;;;;;103.87;7.67;;;1.60;99.90;;;;;;5036801;28;20025;-73
2022/03/18 02:43:59;;;;;;;89.38;5.82;;;1.60;99.90;;;;;;5036849;28;20443;-73
2022/03/18 02:46:26;;;;;;;34.70;5.28;;;1.60;99.90;;;;;;5018631;28;20124;-73
2022/03/18 02:48:51;;;;;;;7.82;4.28;;;1.60;99.90;;;;;;5036400;28;20014;-73
2022/03/18 02:51:18;;;;;;;9.80;4.53;;;1.60;99.90;;;;;;5036452;28;20026;-73
2022/03/18 02:53:44;;;;;;;14.57;5.78;;;1.60;99.90;;;;;;5036399;28;20018;-73
2022/03/18 02:56:09;;;;;;;16.73;5.33;;;1.60;99.90;;;;;;5036330;28;20025;-86
2022/03/18 02:58:36;;;;;;;5.80;2.97;;;1.60;99.90;;;;;;5036488;28;20527;-73
2022/03/18 03:01:03;;;;;;;9.65;4.10;;;1.60;99.90;;;;;;5036386;28;20320;-73
2022/03/18 03:03:29;;;;;;;8.82;4.95;;;1.60;99.90;;;;;;5018694;28;20036;-72
2022/03/18 03:08:40;;;;;;;9.95;5.25;;;1.50;99.90;;;;;;5036158;28;20447;-73
2022/03/18 03:11:06;;;;;;;10.20;4.78;;;1.50;99.90;;;;;;5036451;28;20025;-73
2022/03/18 03:13:32;;;;;;;6.38;3.40;;;1.50;99.90;;;;;;5036443;28;20033;-73
2022/03/18 03:15:59;;;;;;;7.57;4.15;;;1.40;99.90;;;;;;5036029;28;20411;-73
2022/03/18 03:18:25;;;;;;;7.82;5.00;;;1.40;99.90;;;;;;5035805;28;20069;-80
2022/03/18 03:20:50;;;;;;;11.43;4.83;;;1.40;99.90;;;;;;5036035;28;20061;-73
2022/03/18 03:23:17;;;;;;;8.80;5.17;;;1.40;99.90;;;;;;5015011;28;20054;-72
2022/03/18 03:25:43;;;;;;;28.58;5.50;;;1.40;99.90;;;;;;5014816;28;20036;-73
2022/03/18 03:28:09;;;;;;;14.87;4.97;;;1.50;99.90;;;;;;5015032;28;20371;-84
2022/03/18 03:30:35;;;;;;;12.93;4.47;;;1.40;99.90;;;;;;5014933;28;20034;-73
2022/03/18 03:33:00;;;;;;;11.20;4.97;;;1.40;99.90;;;;;;5016252;28;20380;-73
2022/03/18 03:35:27;;;;;;;9.60;3.93;;;1.40;99.90;;;;;;5015969;28;20451;-72
2022/03/18 03:37:52;;;;;;;44.22;4.97;;;1.40;99.90;;;;;;5016351;28;20026;-73
2022/03/18 03:40:19;;;;;;;69.50;6.83;;;1.40;99.90;;;;;;5016002;28;20117;-73
2022/03/18 03:42:48;;;;;;;43.72;5.18;;;1.50;99.90;;;;;;5016206;28;20358;-73
2022/03/18 03:45:14;;;;;;;69.80;5.53;;;1.50;99.90;;;;;;5016180;28;20088;-86
2022/03/18 03:47:41;;;;;;;77.67;6.40;;;1.50;99.90;;;;;;5015756;28;20032;-72
2022/03/18 03:50:07;;;;;;;63.78;6.20;;;1.50;99.90;;;;;;5015756;28;20527;-72
2022/03/18 03:52:34;;;;;;;14.05;5.78;;;1.50;99.90;;;;;;5015719;28;20033;-73
2022/03/18 03:55:00;;;;;;;19.10;5.28;;;1.50;99.90;;;;;;5016080;28;20034;-73
2022/03/18 03:57:26;;;;;;;20.55;5.25;;;1.50;99.90;;;;;;5015792;28;20022;-72
2022/03/18 03:59:52;;;;;;;17.20;5.73;;;1.40;99.90;;;;;;5014614;28;20042;-72
2022/03/18 04:02:20;;;;;;;20.17;5.30;;;1.40;99.90;;;;;;5016099;28;20320;-72
2022/03/18 04:04:48;;;;;;;13.57;4.97;;;1.40;99.90;;;;;;5015715;28;20032;-73
2022/03/18 04:07:15;;;;;;;12.05;5.65;;;1.40;99.90;;;;;;5015599;28;20041;-73
2022/03/18 04:09:41;;;;;;;10.88;5.97;;;1.40;99.90;;;;;;5015609;28;20036;-73
2022/03/18 04:12:07;;;;;;;15.38;6.07;;;1.30;99.90;;;;;;5014666;28;20427;-73
2022/03/18 04:14:33;;;;;;;14.82;5.95;;;1.40;99.90;;;;;;5015463;28;20076;-72
2022/03/18 04:17:02;;;;;;;14.07;6.78;;;1.40;99.90;;;;;;5014670;28;20077;-73
2022/03/18 04:19:28;;;;;;;18.52;6.97;;;1.40;99.90;;;;;;5015371;28;20022;-73
2022/03/18 04:21:54;;;;;;;16.58;4.18;;;1.50;99.90;;;;;;5015678;28;20421;-72
2022/03/18 04:24:19;;;;;;;31.20;6.20;;;1.30;99.90;;;;;;5029229;28;20064;-73
2022/03/18 04:26:46;;;;;;;8.27;4.27;;;1.30;99.90;;;;;;5035184;28;20025;-75
2022/03/18 04:29:12;;;;;;;11.90;5.95;;;1.40;99.90;;;;;;5035192;28;20054;-73
2022/03/18 04:31:42;;;;;;;11.43;4.93;;;1.40;99.90;;;;;;5039146;28;20104;-73
2022/03/18 04:34:07;;;;;;;12.73;5.03;;;1.40;99.90;;;;;;5039319;28;20367;-73
2022/03/18 04:36:33;;;;;;;14.47;5.53;;;1.40;99.90;;;;;;5038810;28;20029;-73
2022/03/18 04:38:59;;;;;;;13.83;5.37;;;1.30;99.90;;;;;;5021460;28;20036;-73
2022/03/18 04:41:25;;;;;;;11.68;6.25;;;1.40;99.90;;;;;;5038946;28;20026;-73
2022/03/18 04:43:51;;;;;;;29.45;6.05;;;1.30;99.90;;;;;;5021438;28;20045;-74
2022/03/18 04:46:17;;;;;;;11.87;6.23;;;1.30;99.90;;;;;;5038959;28;20060;-73
2022/03/18 04:48:42;;;;;;;14.63;5.73;;;1.30;99.90;;;;;;5038535;28;20056;-73
2022/03/18 04:51:08;;;;;;;14.70;6.63;;;1.40;99.90;;;;;;5038653;28;20068;-72
2022/03/18 04:53:36;;;;;;;10.90;6.47;;;1.40;99.90;;;;;;5038813;28;20475;-73
2022/03/18 04:56:01;;;;;;;15.70;6.38;;;1.40;99.90;;;;;;5038631;28;20026;-73
2022/03/18 04:58:27;;;;;;;14.53;6.57;;;1.40;99.90;;;;;;5038857;28;20040;-72
2022/03/18 05:00:53;;;;;;;19.13;5.63;;;1.30;99.90;;;;;;5020762;28;20103;-83
2022/03/18 05:03:19;;;;;;;10.93;5.03;;;1.30;99.90;;;;;;5038683;28;20061;-73
2022/03/18 05:05:44;;;;;;;10.50;4.63;;;1.30;99.90;;;;;;5020864;28;20068;-72
2022/03/18 05:08:10;;;;;;;9.87;4.27;;;1.20;99.90;;;;;;5038545;28;20430;-72
2022/03/18 05:10:37;;;;;;;14.50;7.40;;;1.20;99.90;;;;;;5038312;28;20018;-74
2022/03/18 05:13:02;;;;;;;18.70;7.75;;;1.20;99.90;;;;;;5021099;28;20105;-72
2022/03/18 05:15:31;;;;;;;25.87;6.97;;;1.20;99.90;;;;;;5038208;28;20061;-72
2022/03/18 05:17:57;;;;;;;14.63;5.88;;;1.20;99.90;;;;;;5038324;28;20021;-86
2022/03/18 05:20:23;;;;;;;15.32;6.90;;;1.20;99.90;;;;;;5037902;28;20021;-72
2022/03/18 05:22:51;;;;;;;20.40;6.63;;;1.20;99.90;;;;;;5037944;28;20472;-72
2022/03/18 05:25:17;;;;;;;13.00;7.18;;;1.20;99.90;;;;;;5020535;28;20337;-72
2022/03/18 05:27:44;;;;;;;19.02;7.95;;;1.30;99.90;;;;;;5020710;28;20025;-72
2022/03/18 05:30:15;;;;;;;21.42;6.95;;;1.30;99.90;;;;;;5038332;28;20101;-72
2022/03/18 05:32:42;;;;;;;17.17;7.28;;;1.30;99.90;;;;;;5038066;28;20416;-72
2022/03/18 05:35:10;;;;;;;13.32;7.00;;;1.30;99.90;;;;;;5038167;28;20022;-74
2022/03/18 05:37:36;;;;;;;20.02;7.38;;;1.40;99.90;;;;;;5037824;28;20025;-72
2022/03/18 05:40:03;;;;;;;15.63;7.53;;;1.30;99.90;;;;;;5020274;28;20021;-72
2022/03/18 05:42:29;;;;;;;159.70;12.13;;;1.20;99.90;;;;;;5036529;28;20022;-84
2022/03/18 05:44:55;;;;;;;134.53;12.13;;;1.20;99.90;;;;;;5037936;28;20036;-73
2022/03/18 05:47:20;;;;;;;15.73;6.63;;;1.10;99.90;;;;;;5037547;28;20025;-73
2022/03/18 05:49:46;;;;;;;17.57;6.50;;;1.10;99.90;;;;;;5020015;28;20029;-72
2022/03/18 05:52:11;;;;;;;9.07;4.77;;;1.00;99.90;;;;;;5037930;28;20400;-73
2022/03/18 05:54:37;;;;;;;20.33;8.20;;;0.90;99.90;;;;;;5037562;28;20419;-73
2022/03/18 05:57:03;;;;;;;15.50;6.80;;;0.90;99.90;;;;;;5037328;28;20026;-73
2022/03/18 05:59:33;;;;;;;13.38;5.82;;;0.90;99.90;;;;;;5003212;28;20033;-73
2022/03/18 06:02:00;;;;;;;16.42;7.60;;;1.00;99.90;;;;;;5020099;28;20037;-73
2022/03/18 06:04:26;;;;;;;;;;;1.10;99.90;;;;;;5037574;28;20408;-73
2022/03/18 06:06:52;;;;;;;16.42;7.35;;;1.00;99.90;;;;;;5036997;28;19944;-73
2022/03/18 06:12:04;;;;;;;18.58;6.60;;;1.00;99.90;;;;;;5037422;28;20336;-73
2022/03/18 06:14:30;;;;;;;;;;;1.10;99.90;;;;;;5019808;28;20022;-83
2022/03/18 06:16:58;;;;;;;16.73;6.90;;;1.10;99.90;;;;;;5036829;28;19955;-73
2022/03/18 06:19:25;;;;;;;17.27;7.43;;;1.10;99.90;;;;;;5037005;28;20428;-73
2022/03/18 06:21:51;;;;;;;17.80;8.05;;;1.10;99.90;;;;;;5037033;28;20025;-72
2022/03/18 06:24:18;;;;;;;11.43;5.43;;;1.20;99.90;;;;;;5036605;28;20205;-73
2022/03/18 06:26:43;;;;;;;;;;;1.30;99.90;;;;;;5036819;28;20044;-72
2022/03/18 06:29:10;;;;;;;16.50;7.17;;;1.30;99.90;;;;;;5019220;28;20300;-72
2022/03/18 06:31:36;;;;;;;24.58;8.30;;;1.40;99.90;;;;;;5036914;28;20045;-74
2022/03/18 06:34:03;;;;;;;;;;;1.40;99.90;;;;;;5037122;28;20034;-72
2022/03/18 06:36:29;;;;;;;11.65;5.85;;;1.60;99.90;;;;;;5036661;28;20300;-83
2022/03/18 06:38:55;;;;;;;12.48;5.68;;;1.70;99.90;;;;;;5036400;28;20112;-73
2022/03/18 06:41:20;;;;;;;26.03;9.60;;;1.80;99.90;;;;;;5036599;28;20104;-73
2022/03/18 06:43:47;;;;;;;15.90;6.67;;;2.10;99.90;;;;;;5036608;28;20024;-72
2022/03/18 06:46:16;;;;;;;19.80;7.85;;;2.30;99.90;;;;;;5036765;28;20022;-73
2022/03/18 06:48:42;;;;;;;19.60;8.93;;;2.40;99.90;;;;;;5036056;28;20062;-84
2022/03/18 06:51:09;;;;;;;17.20;6.30;;;2.50;99.90;;;;;;5036240;28;20040;-73
2022/03/18 06:53:34;;;;;;;22.70;9.48;;;2.60;99.90;;;;;;5035788;28;20037;-73
2022/03/18 06:56:00;;;;;;;22.07;6.97;;;2.70;99.90;;;;;;5035885;28;20147;-72
2022/03/18 06:58:27;;;;;;;20.00;8.73;;;2.90;99.90;;;;;;5036120;28;20026;-73
2022/03/18 07:00:54;;;;;;;19.10;9.75;;;3.30;99.90;;;;;;5032356;28;20409;-73
2022/03/18 07:03:20;;;;;;;19.23;9.90;;;4.00;99.90;;;;;;5032901;28;20091;-73
2022/03/18 07:05:46;;;;;;;16.90;7.57;;;4.70;99.90;;;;;;5036070;28;20029;-75
2022/03/18 07:08:12;;;;;;;34.93;11.13;;;5.70;99.90;;;;;;5035886;28;20274;-73
2022/03/18 07:10:38;;;;;;;16.83;9.33;;;6.70;99.90;;;;;;5018278;28;20028;-73
2022/03/18 07:13:04;;;;;;;15.70;7.65;;;7.90;99.90;;;;;;5035657;28;20409;-73
2022/03/18 07:15:30;;;;;;;12.47;6.17;;;8.90;99.90;;;;;;5037497;28;20120;-72
2022/03/18 07:17:59;;;;;;;15.50;7.43;;;9.70;99.90;;;;;;5035720;28;20032;-73
2022/03/18 07:20:29;;;;;;;10.75;5.95;;;10.20;99.90;;;;;;5035985;28;20116;-73
2022/03/18 07:23:12;;;;;;;21.73;6.68;;;10.90;99.90;;;;;;5035408;28;20117;-73
2022/03/18 07:25:42;;;;;;;9.95;5.70;;;11.50;99.90;;;;;;5035685;28;20033;-73
2022/03/18 07:28:09;;;;;;;14.88;6.47;;;11.90;99.90;;;;;;5035412;28;20029;-73
2022/03/18 07:30:36;;;;;;;18.70;6.45;;;12.00;99.90;;;;;;5035455;28;20108;-73
2022/03/18 07:33:03;;;;;;;12.68;5.55;;;12.50;99.90;;;;;;5035749;28;20018;-73
2022/03/18 07:35:29;;;;;;;13.50;5.78;;;13.10;99.90;;;;;;5035404;28;20075;-73
2022/03/18 07:37:54;;;;;;;10.03;5.60;;;13.30;99.90;;;;;;5035387;28;20045;-74
2022/03/18 07:40:20;;;;;;;12.93;5.87;;;13.40;99.90;;;;;;5035510;28;20163;-74
2022/03/18 07:42:48;;;;;;;10.90;5.77;;;13.70;99.90;;;;;;5034281;28;20026;-74
2022/03/18 07:45:28;;;;;;;8.88;5.32;;;14.30;99.90;;;;;;5035744;28;20167;-84
2022/03/18 07:47:59;;;;;;;20.05;5.70;;;14.60;99.90;;;;;;5035025;28;20030;-74
2022/03/18 07:50:27;;;;;;;11.75;5.63;;;14.40;99.90;;;;;;5017784;28;20320;-74
2022/03/18 07:52:58;;;;;;;12.63;5.65;;;14.70;99.90;;;;;;5035364;28;20017;-74
2022/03/18 07:55:26;;;;;;;12.43;5.43;;;15.00;99.90;;;;;;5035297;28;20021;-74
2022/03/18 07:57:53;;;;;;;11.55;5.68;;;15.30;99.90;;;;;;5017728;28;20080;-74
2022/03/18 08:00:19;;;;;;;;;;;15.40;99.90;;;;;;5017957;28;20025;-75
2022/03/18 08:02:46;;;;;;;12.98;5.05;;;15.70;99.90;;;;;;5035096;28;19913;-74
2022/03/18 08:05:12;;;;;;;9.48;4.30;;;15.70;99.90;;;;;;5034720;28;20121;-74
2022/03/18 08:07:39;;;;;;;15.93;4.78;;;15.80;99.90;;;;;;5035478;28;20029;-74
2022/03/18 08:10:07;;;;;;;12.15;4.47;;;15.90;99.90;;;;;;5017303;28;20043;-74
2022/03/18 08:12:33;;;;;;;9.05;4.63;;;15.90;99.90;;;;;;5035265;28;20029;-74
2022/03/18 08:15:04;;;;;;;12.90;4.45;;;15.90;99.90;;;;;;5035092;28;20049;-78
2022/03/18 08:17:30;;;;;;;12.35;4.38;;;16.30;98.50;;;;;;5034920;28;20518;-74
2022/03/18 08:19:56;;;;;;;12.55;4.47;;;16.50;98.40;;;;;;5017661;28;20356;-74
2022/03/18 08:22:22;;;;;;;13.48;4.28;;;16.50;97.80;;;;;;5035387;28;20174;-74
2022/03/18 08:24:49;;;;;;;9.80;3.70;;;16.20;99.90;;;;;;5017250;28;20073;-75
2022/03/18 08:27:16;;;;;;;9.00;4.10;;;16.50;97.20;;;;;;5017240;28;20379;-74
2022/03/18 08:29:42;;;;;;;10.45;5.15;;;16.50;97.40;;;;;;5034645;28;20314;-75
2022/03/18 08:32:11;;;;;;;14.70;4.50;;;16.80;97.10;;;;;;5035386;28;20048;-75
2022/03/18 08:34:38;;;;;;;9.73;4.50;;;16.50;98.00;;;;;;5034772;28;20053;-74
2022/03/18 08:37:08;;;;;;;8.85;4.10;;;16.10;97.40;;;;;;5017303;28;20026;-74
2022/03/18 08:39:35;;;;;;;9.18;4.40;;;16.20;97.80;;;;;;5018268;28;20079;-84
2022/03/18 08:42:01;;;;;;;7.22;4.40;;;15.80;98.10;;;;;;5034989;28;20022;-75
2022/03/18 08:44:26;;;;;;;11.43;4.77;;;15.50;99.20;;;;;;5034961;28;20030;-74
2022/03/18 08:46:52;;;;;;;12.03;4.40;;;15.50;99.20;;;;;;5017045;28;20030;-74
2022/03/18 08:49:18;;;;;;;6.37;4.00;;;14.80;99.90;;;;;;5034860;28;20025;-75
2022/03/18 08:51:44;;;;;;;11.80;4.40;;;14.10;99.90;;;;;;5034698;28;20029;-75
2022/03/18 08:54:09;;;;;;;12.83;5.20;;;13.80;99.90;;;;;;5034759;28;20032;-74
2022/03/18 08:56:35;;;;;;;10.33;4.23;;;13.30;99.90;;;;;;5034509;28;20029;-75
2022/03/18 08:59:06;;;;;;;12.17;4.23;;;13.30;99.90;;;;;;5034658;28;20029;-75
2022/03/18 09:01:35;;;;;;;14.70;3.63;;;13.10;99.90;;;;;;5001656;28;20029;-74
2022/03/18 09:04:01;;;;;;;14.45;4.10;;;13.20;99.90;;;;;;5034871;28;20030;-75
2022/03/18 09:06:26;;;;;;;7.50;3.60;;;12.70;99.90;;;;;;5034528;28;20476;-75
2022/03/18 09:08:52;;;;;;;12.10;3.23;;;12.30;99.90;;;;;;5016985;28;20021;-75
2022/03/18 09:11:18;;;;;;;9.30;4.10;;;12.20;99.90;;;;;;5017314;28;20021;-75
2022/03/18 09:13:44;;;;;;;8.07;3.37;;;12.20;99.90;;;;;;5034502;28;20079;-83
2022/03/18 09:16:12;;;;;;;10.37;3.63;;;12.20;99.90;;;;;;5036100;28;20030;-75
2022/03/18 09:18:37;;;;;;;16.60;3.40;;;12.10;99.90;;;;;;5037805;28;20262;-74
2022/03/18 09:21:03;;;;;;;11.53;4.23;;;12.30;99.90;;;;;;5020600;28;20041;-74
2022/03/18 09:23:29;;;;;;;14.10;4.10;;;12.20;99.90;;;;;;5037804;28;20095;-75
2022/03/18 09:25:55;;;;;;;12.93;4.43;;;11.80;99.90;;;;;;5003997;28;20124;-84
2022/03/18 09:28:21;;;;;;;13.20;3.65;;;12.00;99.90;;;;;;5037774;28;20412;-75
2022/03/18 09:30:47;;;;;;;8.50;4.60;;;12.20;99.90;;;;;;5020564;28;20076;-74
2022/03/18 09:33:13;;;;;;;11.63;4.10;;;12.40;99.90;;;;;;5038107;28;20026;-75
2022/03/18 09:35:39;;;;;;;10.53;4.30;;;12.40;99.90;;;;;;5037847;28;20120;-75
2022/03/18 09:38:05;;;;;;;15.20;4.90;;;12.50;99.90;;;;;;5037984;28;20103;-74
2022/03/18 09:40:31;;;;;;;16.45;5.00;;;12.50;99.90;;;;;;5020123;28;20033;-74
2022/03/18 09:43:06;;;;;;;15.93;4.70;;;12.50;99.90;;;;;;5003546;28;20037;-74
2022/03/18 09:45:34;;;;;;;11.00;3.97;;;12.60;99.90;;;;;;5020030;28;20412;-74
2022/03/18 09:48:03;;;;;;;10.80;4.45;;;12.60;99.90;;;;;;5003852;28;20026;-85
2022/03/18 09:50:30;;;;;;;12.93;4.15;;;12.60;99.90;;;;;;5019916;28;20041;-74
2022/03/18 09:52:56;;;;;;;10.18;4.28;;;12.50;99.90;;;;;;5037652;28;20040;-74
2022/03/18 09:55:22;;;;;;;12.27;4.75;;;12.70;99.90;;;;;;5019860;28;20364;-83
2022/03/18 09:57:48;;;;;;;11.13;4.50;;;12.50;99.90;;;;;;5036395;28;20037;-75
2022/03/18 10:00:15;;;;;;;9.67;4.33;;;12.70;99.90;;;;;;5030728;28;20417;-75
2022/03/18 10:02:41;;;;;;;12.65;4.65;;;12.70;99.90;;;;;;5022922;28;20018;-75
2022/03/18 10:05:16;;;;;;;18.23;4.85;;;12.60;99.90;;;;;;5023906;28;20022;-75
2022/03/18 10:07:54;;;;;;;9.82;3.90;;;12.60;99.90;;;;;;5021836;28;20448;-75
2022/03/18 10:10:23;;;;;;;13.35;5.20;;;12.70;99.90;;;;;;5002973;28;20419;-74
2022/03/18 10:12:50;;;;;;;12.38;3.60;;;12.90;99.90;;;;;;5024065;28;21208;-75
2022/03/18 10:15:26;;;;;;;10.68;3.75;;;13.00;99.90;;;;;;5016268;28;20037;-75
2022/03/18 10:17:57;;;;;;;11.73;4.95;;;13.10;99.90;;;;;;5004600;28;20143;-75
2022/03/18 10:20:32;;;;;;;10.38;4.72;;;13.20;99.90;;;;;;5005696;28;20022;-74
2022/03/18 10:23:20;;;;;;;14.88;4.20;;;13.20;99.90;;;;;;5026817;28;20021;-75
2022/03/18 10:25:57;;;;;;;13.27;4.63;;;13.00;99.90;;;;;;4996003;28;20030;-75
2022/03/18 10:28:40;;;;;;;13.40;4.28;;;12.80;99.90;;;;;;5028698;28;20049;-85
2022/03/18 10:31:21;;;;;;;9.90;4.05;;;12.80;99.90;;;;;;5029233;28;20071;-74
2022/03/18 10:39:30;;;;;;;10.80;4.03;;;13.20;99.90;;;;;;5036512;28;20028;-74
2022/03/18 10:42:01;;;;;;;13.73;3.97;;;13.20;99.90;;;;;;5018842;28;20036;-74
2022/03/18 10:44:47;;;;;;;13.30;4.15;;;13.30;99.90;;;;;;5017963;28;20018;-74
2022/03/18 10:47:36;;;;;;;10.40;4.10;;;13.40;99.90;;;;;;5033886;28;20040;-74
2022/03/18 10:50:16;;;;;;;14.85;3.63;;;13.40;99.90;;;;;;5036259;28;20041;-74
2022/03/18 10:52:48;;;;;;;11.80;3.53;;;13.30;99.90;;;;;;5034736;28;20040;-75
2022/03/18 10:55:26;;;;;;;18.20;4.32;;;13.20;99.90;;;;;;5015452;28;20025;-75
2022/03/18 10:57:54;;;;;;;10.45;4.32;;;13.40;99.90;;;;;;5030294;28;20033;-74
2022/03/18 11:00:26;;;;;;;13.40;4.35;;;13.40;99.90;;;;;;5031694;28;20029;-74
2022/03/18 11:02:58;;;;;;;10.73;4.35;;;13.70;99.90;;;;;;5032004;28;20033;-75
2022/03/18 11:05:25;;;;;;;8.10;3.25;;;13.60;99.90;;;;;;5032055;28;20087;-75
2022/03/18 11:07:54;;;;;;;12.00;3.47;;;13.80;99.90;;;;;;5032051;28;20029;-81
2022/03/18 11:13:08;;;;;;;11.02;4.35;;;13.80;99.90;;;;;;5025320;28;20076;-75
2022/03/18 11:15:35;;;;;;;;;;;13.70;99.90;;;;;;5032561;28;20041;-75
2022/03/18 11:18:03;;;;;;;11.05;4.15;;;13.80;99.90;;;;;;5032423;28;19953;-75
2022/03/18 11:20:32;;;;;;;10.40;4.03;;;13.70;99.90;;;;;;5032306;28;20055;-75
2022/03/18 11:22:58;;;;;;;14.63;4.43;;;13.70;99.90;;;;;;5014575;28;20048;-76
2022/03/18 11:25:25;;;;;;;6.30;3.17;;;13.70;99.90;;;;;;5032412;28;20025;-74
2022/03/18 11:27:52;;;;;;;10.73;4.53;;;13.80;99.90;;;;;;5032203;28;20101;-75
2022/03/18 11:30:21;;;;;;;;;;;13.80;99.90;;;;;;4998713;28;20029;-75
2022/03/18 11:33:05;;;;;;;9.57;4.03;;;13.90;99.90;;;;;;5032150;28;19916;-75
2022/03/18 11:35:52;;;;;;;8.70;3.30;;;14.00;99.90;;;;;;5014490;28;20025;-75
2022/03/18 11:38:28;;;;;;;7.85;3.70;;;14.00;99.90;;;;;;5031654;28;20037;-75
2022/03/18 11:41:03;;;;;;;15.32;4.40;;;14.10;99.90;;;;;;5013518;28;20060;-75
2022/03/18 11:43:41;;;;;;;7.95;3.63;;;14.10;99.90;;;;;;5014784;28;20037;-75
2022/03/18 11:46:13;;;;;;;7.88;2.75;;;14.10;99.90;;;;;;5031871;28;20114;-75
2022/03/18 11:48:46;;;;;;;9.80;3.88;;;14.10;99.90;;;;;;5031231;28;20036;-75
2022/03/18 11:51:23;;;;;;;14.43;4.07;;;14.20;99.90;;;;;;5023976;28;20021;-75
2022/03/18 11:53:51;;;;;;;;;;;14.30;99.90;;;;;;5032134;28;20109;-76
2022/03/18 11:56:20;;;;;;;9.82;3.53;;;14.40;99.90;;;;;;5031911;28;19909;-76
2022/03/18 11:58:46;;;;;;;11.70;4.28;;;14.50;99.90;;;;;;5017834;28;20048;-77
2022/03/18 12:01:37;;;;;;;23.40;5.28;;;14.50;99.90;;;;;;5014022;28;20076;-80
2022/03/18 12:04:06;;;;;;;6.18;3.53;;;14.50;99.90;;;;;;5031898;28;20033;-75
2022/03/18 12:06:31;;;;;;;9.65;4.80;;;14.70;99.90;;;;;;5014830;28;20026;-82
2022/03/18 12:08:59;;;;;;;14.10;5.23;;;14.80;99.90;;;;;;5031711;28;20328;-76
2022/03/18 12:11:27;;;;;;;12.23;4.80;;;14.30;99.90;;;;;;5030307;28;20033;-75
2022/03/18 12:13:53;;;;;;;17.25;5.03;;;14.30;99.90;;;;;;5031617;28;20026;-75
2022/03/18 12:16:23;;;;;;;11.60;4.47;;;14.40;99.90;;;;;;5022023;28;20514;-75
2022/03/18 12:18:55;;;;;;;20.00;5.93;;;14.30;99.90;;;;;;5031473;28;20035;-75
2022/03/18 12:21:35;;;;;;;12.27;4.22;;;14.10;99.90;;;;;;5031585;28;20489;-75
2022/03/18 12:24:06;;;;;;;13.52;4.43;;;13.90;99.90;;;;;;5031382;28;20053;-78
2022/03/18 12:26:31;;;;;;;16.80;5.40;;;13.80;99.90;;;;;;5013416;28;20822;-76
2022/03/18 12:28:58;;;;;;;11.70;5.93;;;13.80;99.90;;;;;;5031483;28;20030;-82
2022/03/18 12:31:24;;;;;;;19.70;5.88;;;13.80;99.90;;;;;;5022473;28;20025;-75
2022/03/18 12:33:59;;;;;;;15.97;6.27;;;13.60;99.90;;;;;;5031367;28;20026;-76
2022/03/18 12:36:28;;;;;;;12.32;5.43;;;13.60;99.90;;;;;;5031455;28;20486;-78
2022/03/18 12:39:11;;;;;;;15.45;5.28;;;13.50;99.90;;;;;;5031583;28;20068;-76
2022/03/18 12:41:38;;;;;;;14.73;6.00;;;13.60;99.90;;;;;;5014247;28;20113;-75
2022/03/18 12:44:04;;;;;;;;;;;13.70;99.90;;;;;;5029212;28;20068;-75
2022/03/18 12:46:33;;;;;;;20.00;6.40;;;13.90;99.90;;;;;;5030974;28;19943;-76
2022/03/18 12:48:59;;;;;;;14.15;5.40;;;13.70;99.90;;;;;;5013410;28;20144;-75
2022/03/18 12:51:25;;;;;;;14.85;6.32;;;13.80;99.90;;;;;;5015570;28;20029;-81
2022/03/18 12:53:51;;;;;;;14.17;5.47;;;14.10;99.90;;;;;;5035111;28;20030;-75
2022/03/18 12:56:19;;;;;;;11.10;5.03;;;13.90;99.90;;;;;;5035281;28;20025;-75
2022/03/18 12:58:46;;;;;;;16.20;5.70;;;13.90;99.90;;;;;;5034177;28;20037;-75
2022/03/18 13:01:13;;;;;;;;;;;14.10;99.90;;;;;;5021147;28;20033;-76
2022/03/18 13:03:50;;;;;;;14.30;5.80;;;14.20;99.90;;;;;;5033526;28;19905;-76
2022/03/18 13:06:20;;;;;;;14.20;4.85;;;14.20;99.90;;;;;;5034760;28;20037;-77
2022/03/18 13:08:54;;;;;;;10.48;4.47;;;14.40;99.90;;;;;;5033353;28;20057;-76
2022/03/18 13:11:21;;;;;;;12.93;4.93;;;14.40;99.90;;;;;;5034607;28;20045;-76